Time;durP1;ratioP1;P1;durP2;ratioP2;P2;SDS_P1;SDS_P2;PMS_P1;PMS_P2;Temp;Humidity;BMP_temperature;BMP_pressure;BME280_temperature;BME280_humidity;BME280_pressure;Samples;Min_cycle;Max_cycle;Signal;HPM_P1;HPM_P2
2021/05/05 00:01:18;;;;;;;3.77;2.80;;;;;;;11.73;45.34;97713.07;1676104;85;21169;-72
2021/05/05 00:03:44;;;;;;;3.30;2.75;;;;;;;11.72;45.41;97705.52;1678653;85;21697;-71
2021/05/05 00:06:12;;;;;;;4.05;2.80;;;;;;;11.72;45.48;97704.76;1676410;85;21356;-69
2021/05/05 00:08:38;;;;;;;2.90;2.58;;;;;;;11.70;45.49;97707.92;1676089;85;21184;-71
2021/05/05 00:11:04;;;;;;;4.72;2.77;;;;;;;11.68;45.52;97699.42;1678485;85;21196;-70
2021/05/05 00:13:30;;;;;;;4.35;2.80;;;;;;;11.69;45.55;97700.94;1676758;85;21732;-72
2021/05/05 00:15:56;;;;;;;3.58;2.83;;;;;;;11.68;45.58;97695.94;1676768;85;21302;-72
2021/05/05 00:18:22;;;;;;;4.65;2.60;;;;;;;11.65;45.58;97696.20;1679160;85;21384;-70
2021/05/05 00:20:48;;;;;;;3.50;2.60;;;;;;;11.68;45.57;97695.94;1678327;85;21216;-72
2021/05/05 00:23:14;;;;;;;4.67;2.83;;;;;;;11.68;45.59;97693.98;1677488;85;21199;-72
2021/05/05 00:25:40;;;;;;;3.58;2.80;;;;;;;11.71;45.51;97697.80;1679775;85;21786;-71
2021/05/05 00:28:06;;;;;;;2.70;2.25;;;;;;;11.72;45.54;97700.08;1675797;85;21323;-71
2021/05/05 00:30:32;;;;;;;3.30;2.70;;;;;;;11.75;45.42;97693.78;1679690;85;21168;-70
2021/05/05 00:32:58;;;;;;;3.58;2.72;;;;;;;11.80;45.37;97690.38;1672724;84;21573;-72
2021/05/05 00:35:24;;;;;;;2.83;2.47;;;;;;;11.85;45.30;97695.30;1679426;85;21197;-71
2021/05/05 00:37:50;;;;;;;3.12;2.55;;;;;;;11.91;45.29;97692.24;1680252;85;21218;-71
2021/05/05 00:40:16;;;;;;;4.08;2.35;;;;;;;11.97;45.20;97702.75;1684589;85;21783;-69
2021/05/05 00:42:42;;;;;;;4.10;2.55;;;;;;;12.01;45.00;97698.00;1682742;85;21202;-70
2021/05/05 00:45:12;;;;;;;2.83;2.52;;;;;;;12.08;44.94;97688.86;1684854;84;21163;-71
2021/05/05 00:47:38;;;;;;;5.80;2.60;;;;;;;12.17;44.83;97685.69;1682966;84;21156;-70
2021/05/05 00:50:07;;;;;;;3.27;2.62;;;;;;;12.25;44.66;97680.02;1684184;85;21153;-71
2021/05/05 00:52:33;;;;;;;3.35;2.50;;;;;;;12.32;44.46;97679.83;1682032;85;21194;-70
2021/05/05 00:54:59;;;;;;;4.67;2.60;;;;;;;12.39;44.39;97680.99;1684945;85;21324;-70
2021/05/05 00:57:26;;;;;;;3.62;2.50;;;;;;;12.44;44.25;97673.05;1684318;85;21208;-71
2021/05/05 00:59:52;;;;;;;2.60;2.40;;;;;;;12.50;44.23;97673.88;1657841;85;21385;-73
2021/05/05 01:02:18;;;;;;;3.65;2.70;;;;;;;12.55;44.09;97679.53;1682287;85;21193;-72
2021/05/05 01:04:44;;;;;;;3.47;2.60;;;;;;;12.63;43.95;97679.48;1684825;85;21595;-69
2021/05/05 01:07:11;;;;;;;3.75;2.35;;;;;;;12.73;43.87;97681.70;1687080;84;21349;-71
2021/05/05 01:09:37;;;;;;;2.98;2.50;;;;;;;12.78;43.71;97677.69;1696651;84;21200;-72
2021/05/05 01:12:03;;;;;;;2.42;2.22;;;;;;;12.82;43.61;97676.96;1697076;84;21741;-71
2021/05/05 01:14:29;;;;;;;2.85;2.30;;;;;;;12.85;43.61;97680.20;1698941;83;21175;-70
2021/05/05 01:16:55;;;;;;;3.52;2.60;;;;;;;12.85;43.56;97680.95;1699009;84;21200;-71
2021/05/05 01:19:21;;;;;;;2.77;2.35;;;;;;;12.84;43.53;97683.50;1699050;84;21338;-69
2021/05/05 01:21:47;;;;;;;2.75;2.52;;;;;;;12.83;43.55;97672.45;1698924;84;21594;-71
2021/05/05 01:24:13;;;;;;;4.00;2.60;;;;;;;12.84;43.54;97682.74;1698876;84;21210;-71
2021/05/05 01:26:39;;;;;;;3.40;2.58;;;;;;;12.87;43.39;97677.78;1698584;84;21840;-72
2021/05/05 01:29:05;;;;;;;2.80;2.50;;;;;;;12.93;43.37;97676.63;1699132;84;21180;-71
2021/05/05 01:31:31;;;;;;;2.62;2.17;;;;;;;12.97;43.12;97670.48;1678836;84;21232;-72
2021/05/05 01:33:58;;;;;;;3.60;2.33;;;;;;;13.00;43.18;97673.69;1699073;84;21644;-70
2021/05/05 01:36:27;;;;;;;3.45;2.60;;;;;;;13.02;43.27;97671.30;1678772;84;21207;-71
2021/05/05 01:38:53;;;;;;;3.05;2.22;;;;;;;13.03;43.07;97670.84;1698817;84;21192;-70
2021/05/05 01:41:19;;;;;;;4.28;2.50;;;;;;;13.03;43.18;97675.53;1699014;84;21236;-72
2021/05/05 01:43:45;;;;;;;4.45;2.25;;;;;;;13.03;43.32;97668.72;1698992;84;21590;-70
2021/05/05 01:46:11;;;;;;;3.77;2.50;;;;;;;13.04;43.18;97678.41;1698848;84;21346;-71
2021/05/05 01:48:37;;;;;;;5.45;2.40;;;;;;;13.04;43.18;97679.20;1699001;84;21168;-72
2021/05/05 01:51:04;;;;;;;6.03;2.65;;;;;;;13.04;43.26;97668.30;1698953;84;21489;-72
2021/05/05 01:53:30;;;;;;;2.60;2.40;;;;;;;13.04;43.25;97672.38;1699255;84;21180;-70
2021/05/05 01:55:56;;;;;;;3.05;2.62;;;;;;;13.05;43.33;97664.36;1698864;84;21180;-71
2021/05/05 01:58:22;;;;;;;3.37;2.40;;;;;;;13.06;43.05;97670.56;1699026;84;21211;-72
2021/05/05 02:00:48;;;;;;;3.35;2.08;;;;;;;13.09;43.21;97671.83;1698976;84;21210;-72
2021/05/05 02:03:14;;;;;;;2.95;2.42;;;;;;;13.10;43.10;97671.23;1699080;84;21230;-70
2021/05/05 02:05:40;;;;;;;3.50;2.50;;;;;;;13.13;43.00;97666.87;1698970;84;21361;-71
2021/05/05 02:08:06;;;;;;;3.27;2.70;;;;;;;13.16;42.96;97666.74;1698992;84;21184;-70
2021/05/05 02:10:32;;;;;;;2.40;2.17;;;;;;;13.18;42.81;97664.95;1699050;84;21681;-70
2021/05/05 02:12:58;;;;;;;5.25;2.80;;;;;;;13.21;42.72;97667.55;1699053;84;21346;-72
2021/05/05 02:15:24;;;;;;;3.90;2.30;;;;;;;13.24;42.67;97659.09;1699073;84;21283;-71
2021/05/05 02:17:50;;;;;;;3.60;2.60;;;;;;;13.27;42.55;97660.36;1699140;84;21499;-70
2021/05/05 02:20:19;;;;;;;3.37;2.27;;;;;;;13.30;42.44;97661.45;1699282;84;21227;-70
2021/05/05 02:22:45;;;;;;;3.60;2.20;;;;;;;13.33;42.34;97662.69;1698910;84;21188;-71
2021/05/05 02:25:11;;;;;;;3.05;2.50;;;;;;;13.36;42.31;97662.41;1698955;84;21354;-71
2021/05/05 02:27:37;;;;;;;4.12;2.37;;;;;;;13.39;42.32;97658.80;1698910;83;21212;-73
2021/05/05 02:30:05;;;;;;;3.05;2.60;;;;;;;13.40;42.24;97667.16;1698960;84;21741;-71
2021/05/05 02:32:31;;;;;;;2.55;2.30;;;;;;;13.41;42.13;97661.85;1699091;84;21196;-72
2021/05/05 02:34:57;;;;;;;3.08;2.50;;;;;;;13.42;42.04;97657.94;1699362;84;21224;-70
2021/05/05 02:37:23;;;;;;;3.45;2.42;;;;;;;13.42;41.89;97652.48;1699149;84;21326;-72
2021/05/05 02:39:49;;;;;;;3.45;2.37;;;;;;;13.45;41.76;97657.62;1699427;84;21211;-72
2021/05/05 02:42:18;;;;;;;4.50;2.62;;;;;;;13.46;41.60;97647.66;1699003;84;21638;-70
2021/05/05 02:44:48;;;;;;;3.87;2.65;;;;;;;13.49;41.52;97648.13;1699176;84;21220;-71
2021/05/05 02:47:13;;;;;;;2.85;2.40;;;;;;;13.52;41.50;97654.67;1699005;84;21223;-70
2021/05/05 02:49:39;;;;;;;2.98;2.40;;;;;;;13.54;41.39;97651.66;1699088;84;21358;-70
2021/05/05 02:52:05;;;;;;;3.00;2.30;;;;;;;13.55;41.39;97644.23;1699002;84;21772;-72
2021/05/05 02:54:31;;;;;;;3.40;2.92;;;;;;;13.53;41.39;97650.73;1699104;84;21225;-71
2021/05/05 02:56:57;;;;;;;3.65;2.40;;;;;;;13.51;41.41;97640.89;1699208;84;21220;-71
2021/05/05 02:59:25;;;;;;;2.70;2.50;;;;;;;13.48;41.45;97642.53;1694937;84;21652;-71
2021/05/05 03:01:54;;;;;;;2.95;2.50;;;;;;;13.47;41.43;97645.69;1692529;84;21656;-71
2021/05/05 03:04:20;;;;;;;2.80;2.27;;;;;;;13.44;41.44;97640.52;1649351;86;21217;-71
2021/05/05 03:06:46;;;;;;;4.72;2.50;;;;;;;13.41;41.42;97636.55;1642064;87;21766;-70
2021/05/05 03:09:12;;;;;;;3.42;2.55;;;;;;;13.38;41.45;97636.83;1642037;87;21233;-70
2021/05/05 03:11:38;;;;;;;5.30;2.37;;;;;;;13.35;41.39;97629.53;1641891;87;21226;-71
2021/05/05 03:14:05;;;;;;;3.45;2.60;;;;;;;13.33;41.48;97629.20;1642203;87;21237;-71
2021/05/05 03:16:31;;;;;;;2.75;2.40;;;;;;;13.31;41.52;97621.48;1641873;87;21226;-71
2021/05/05 03:18:56;;;;;;;3.75;2.45;;;;;;;13.31;41.55;97620.70;1641919;87;21370;-71
2021/05/05 03:21:22;;;;;;;3.20;2.40;;;;;;;13.28;41.71;97617.50;1641947;87;21348;-71
2021/05/05 03:23:49;;;;;;;3.35;2.50;;;;;;;13.24;41.88;97616.23;1641849;87;21566;-71
2021/05/05 03:26:14;;;;;;;3.35;2.37;;;;;;;13.24;42.05;97612.75;1646541;86;21201;-71
2021/05/05 03:28:41;;;;;;;4.55;2.70;;;;;;;13.23;42.09;97612.57;1664983;86;22352;-72
2021/05/05 03:31:07;;;;;;;3.90;2.30;;;;;;;13.21;42.28;97610.91;1665151;86;21181;-70
2021/05/05 03:33:33;;;;;;;3.58;2.47;;;;;;;13.21;42.37;97608.19;1665128;86;21792;-71
2021/05/05 03:35:59;;;;;;;2.60;2.40;;;;;;;13.17;42.37;97618.43;1665255;86;21176;-71
2021/05/05 03:38:25;;;;;;;2.90;2.40;;;;;;;13.14;42.38;97618.70;1664330;86;21168;-72
2021/05/05 03:40:51;;;;;;;3.20;2.47;;;;;;;13.11;42.42;97620.34;1657592;86;21651;-72
2021/05/05 03:43:18;;;;;;;2.90;2.45;;;;;;;13.10;42.37;97609.91;1657381;86;21256;-72
2021/05/05 03:45:44;;;;;;;;;;;;;;;12.43;42.40;97527.80;1660010;86;21647;-72
2021/05/05 03:48:10;;;;;;;2.47;2.20;;;;;;;13.13;42.43;97613.11;1636252;87;20223;-70
2021/05/05 03:50:36;;;;;;;4.70;2.80;;;;;;;13.11;42.41;97612.17;1668670;86;21177;-72
2021/05/05 03:53:02;;;;;;;2.80;2.50;;;;;;;13.09;42.46;97619.27;1668756;86;21951;-72
2021/05/05 03:55:28;;;;;;;2.95;2.45;;;;;;;13.09;42.45;97638.34;1668820;86;21342;-72
2021/05/05 03:57:54;;;;;;;3.95;2.50;;;;;;;13.11;42.63;97635.34;1698269;84;21249;-71
2021/05/05 04:00:21;;;;;;;2.92;2.62;;;;;;;13.13;42.73;97630.07;1698886;84;21203;-71
2021/05/05 04:02:47;;;;;;;2.65;2.40;;;;;;;13.15;42.62;97624.92;1699013;84;21812;-70
2021/05/05 04:05:14;;;;;;;3.70;2.52;;;;;;;13.18;42.62;97620.73;1699174;84;21354;-72
2021/05/05 04:07:40;;;;;;;5.42;2.62;;;;;;;13.25;42.65;97616.98;1699414;84;21196;-70
2021/05/05 04:10:07;;;;;;;2.95;2.50;;;;;;;13.33;42.67;97623.75;1697101;84;21205;-71
2021/05/05 04:12:33;;;;;;;2.85;2.45;;;;;;;13.41;42.66;97626.40;1637956;87;21205;-70
2021/05/05 04:14:59;;;;;;;3.15;2.42;;;;;;;13.49;42.38;97628.28;1630580;87;21618;-71
2021/05/05 04:17:25;;;;;;;4.05;2.25;;;;;;;13.53;42.42;97637.09;1630718;88;21236;-71
2021/05/05 04:19:53;;;;;;;3.50;2.40;;;;;;;13.54;42.72;97638.02;1610568;89;21244;-70
2021/05/05 04:22:19;;;;;;;3.22;2.35;;;;;;;13.55;42.59;97645.59;1638134;87;21223;-70
2021/05/05 04:24:45;;;;;;;4.78;2.80;;;;;;;13.57;42.76;97634.27;1610728;89;21745;-71
2021/05/05 04:27:11;;;;;;;3.10;2.20;;;;;;;13.61;42.58;97620.64;1661421;86;21369;-70
2021/05/05 04:29:37;;;;;;;6.78;2.87;;;;;;;13.70;42.41;97626.78;1665270;86;21251;-73
2021/05/05 04:32:03;;;;;;;3.65;2.65;;;;;;;13.82;42.18;97619.12;1665176;86;21855;-70
2021/05/05 04:34:29;;;;;;;4.03;2.85;;;;;;;13.97;42.13;97611.95;1665092;86;21180;-71
2021/05/05 04:36:55;;;;;;;2.75;2.25;;;;;;;14.17;41.86;97614.33;1661967;84;21257;-71
2021/05/05 04:39:21;;;;;;;4.15;2.70;;;;;;;14.38;41.80;97612.77;1637841;87;21358;-72
2021/05/05 04:41:47;;;;;;;3.50;2.40;;;;;;;14.59;41.25;97607.09;1636772;86;21234;-71
2021/05/05 04:44:13;;;;;;;3.87;2.47;;;;;;;14.76;41.18;97598.05;1649804;86;21163;-73
2021/05/05 04:46:40;;;;;;;2.72;2.35;;;;;;;14.90;40.96;97602.80;1660283;86;21335;-70
2021/05/05 04:49:06;;;;;;;4.15;2.52;;;;;;;15.04;40.84;97613.14;1657957;86;21161;-71
2021/05/05 04:51:32;;;;;;;3.25;2.60;;;;;;;15.20;40.48;97605.27;1664682;86;21170;-71
2021/05/05 04:53:58;;;;;;;3.58;2.55;;;;;;;15.30;40.35;97603.45;1698067;84;21422;-71
2021/05/05 04:56:24;;;;;;;4.25;2.90;;;;;;;15.39;40.16;97606.80;1695852;84;21878;-71
2021/05/05 04:58:50;;;;;;;3.65;2.40;;;;;;;15.44;39.84;97591.73;1697241;84;21339;-70
2021/05/05 05:01:16;;;;;;;2.98;2.67;;;;;;;15.43;39.80;97600.55;1697444;84;21328;-70
2021/05/05 05:03:42;;;;;;;3.55;2.67;;;;;;;15.45;39.82;97600.86;1699132;84;21350;-70
2021/05/05 05:06:08;;;;;;;3.67;2.60;;;;;;;15.50;39.71;97596.77;1698967;84;21358;-70
2021/05/05 05:08:34;;;;;;;3.17;2.45;;;;;;;15.53;39.80;97596.59;1699003;84;21537;-70
2021/05/05 05:11:00;;;;;;;4.65;3.00;;;;;;;15.63;39.58;97600.10;1698778;84;21192;-71
2021/05/05 05:13:26;;;;;;;4.60;2.47;;;;;;;15.77;39.45;97608.33;1698810;84;21727;-70
2021/05/05 05:15:52;;;;;;;3.08;2.50;;;;;;;15.97;39.27;97616.04;1698246;84;21209;-72
2021/05/05 05:18:18;;;;;;;3.25;2.50;;;;;;;16.17;39.08;97622.37;1693348;84;21174;-73
2021/05/05 05:20:44;;;;;;;5.47;2.80;;;;;;;16.39;39.10;97613.93;1664348;86;21586;-71
2021/05/05 05:23:10;;;;;;;2.98;2.65;;;;;;;16.59;38.95;97610.05;1699162;84;21332;-71
2021/05/05 05:25:36;;;;;;;3.60;2.65;;;;;;;16.77;38.33;97617.44;1690374;84;21326;-71
2021/05/05 05:28:02;;;;;;;3.00;2.58;;;;;;;16.83;38.23;97618.34;1695348;84;21208;-74
2021/05/05 05:30:28;;;;;;;3.25;2.45;;;;;;;16.93;38.02;97616.30;1695953;84;21428;-71
2021/05/05 05:32:54;;;;;;;3.02;2.42;;;;;;;17.03;37.84;97630.11;1698005;84;21333;-71
2021/05/05 05:35:20;;;;;;;4.03;2.60;;;;;;;17.15;37.89;97633.08;1696629;84;21197;-70
2021/05/05 05:37:46;;;;;;;3.80;2.47;;;;;;;17.24;37.68;97638.50;1696310;84;21174;-71
2021/05/05 05:40:12;;;;;;;4.30;2.60;;;;;;;17.26;37.64;97631.94;1681398;84;21330;-73
2021/05/05 05:42:38;;;;;;;4.87;2.40;;;;;;;17.27;37.47;97636.22;1685854;84;21571;-73
2021/05/05 05:45:06;;;;;;;3.52;2.52;;;;;;;17.35;37.50;97641.49;1695338;84;21422;-70
2021/05/05 05:47:32;;;;;;;5.37;2.70;;;;;;;17.45;37.27;97638.80;1658845;86;21656;-73
2021/05/05 05:49:58;;;;;;;2.87;2.58;;;;;;;17.55;37.07;97636.01;1649550;86;21342;-72
2021/05/05 05:52:23;;;;;;;2.87;2.55;;;;;;;17.60;37.14;97636.11;1646739;86;21417;-72
2021/05/05 05:54:50;;;;;;;3.30;2.40;;;;;;;17.69;36.89;97635.27;1664952;86;21314;-73
2021/05/05 05:57:17;;;;;;;5.85;2.30;;;;;;;17.73;36.86;97637.20;1652045;86;21687;-71
2021/05/05 05:59:43;;;;;;;3.12;2.40;;;;;;;17.84;36.79;97639.42;1665227;86;21540;-72
2021/05/05 06:02:10;;;;;;;3.33;2.60;;;;;;;18.03;36.48;97644.89;1662122;86;21195;-70
2021/05/05 06:04:36;;;;;;;2.80;2.30;;;;;;;18.21;36.31;97639.83;1667456;86;21413;-73
2021/05/05 06:07:02;;;;;;;3.72;2.30;;;;;;;18.31;36.11;97636.38;1669452;86;21228;-74
2021/05/05 06:09:27;;;;;;;3.42;2.40;;;;;;;18.30;36.11;97642.47;1703531;83;21788;-73
2021/05/05 06:11:53;;;;;;;3.27;2.50;;;;;;;18.27;35.91;97635.18;1704137;84;21628;-73
2021/05/05 06:14:19;;;;;;;2.87;2.25;;;;;;;18.26;35.77;97640.55;1703993;84;21362;-74
2021/05/05 06:16:46;;;;;;;2.85;2.42;;;;;;;18.22;35.59;97634.47;1704270;84;21206;-75
2021/05/05 06:19:12;;;;;;;4.35;2.45;;;;;;;18.19;35.87;97632.67;1676082;84;21254;-73
2021/05/05 06:21:38;;;;;;;4.05;2.55;;;;;;;18.15;35.79;97634.87;1703946;84;21346;-73
2021/05/05 06:24:05;;;;;;;3.08;2.30;;;;;;;18.14;35.73;97634.12;1703869;84;21784;-73
2021/05/05 06:26:31;;;;;;;4.33;2.27;;;;;;;18.16;35.75;97624.01;1704243;84;21224;-74
2021/05/05 06:28:57;;;;;;;2.80;2.50;;;;;;;18.21;35.48;97628.84;1703930;84;21394;-74
2021/05/05 06:31:23;;;;;;;3.10;2.30;;;;;;;18.19;35.35;97621.06;1704019;84;21865;-73
2021/05/05 06:33:49;;;;;;;3.72;2.40;;;;;;;18.26;35.31;97628.19;1703810;84;21375;-73
2021/05/05 06:36:15;;;;;;;3.87;2.47;;;;;;;18.36;35.47;97619.20;1704073;84;21176;-74
2021/05/05 06:38:41;;;;;;;4.30;2.30;;;;;;;18.55;35.60;97611.50;1699462;84;21227;-73
2021/05/05 06:41:07;;;;;;;3.20;2.50;;;;;;;18.73;35.02;97603.02;1699042;84;21919;-73
2021/05/05 06:43:33;;;;;;;3.35;2.40;;;;;;;18.80;34.92;97602.66;1699017;84;21394;-74
2021/05/05 06:46:00;;;;;;;3.67;2.33;;;;;;;18.93;34.51;97606.43;1698956;84;21685;-73
2021/05/05 06:48:27;;;;;;;3.27;2.50;;;;;;;18.94;34.50;97598.34;1698944;84;21219;-76
2021/05/05 06:50:52;;;;;;;3.27;2.47;;;;;;;19.08;34.63;97596.13;1694252;84;21623;-74
2021/05/05 06:53:18;;;;;;;4.85;2.50;;;;;;;19.23;34.35;97594.70;1692304;85;21233;-74
2021/05/05 06:55:45;;;;;;;2.98;2.42;;;;;;;19.33;34.06;97587.67;1692445;83;21336;-73
2021/05/05 06:58:10;;;;;;;4.28;2.45;;;;;;;19.45;34.09;97587.32;1692355;84;21218;-74
2021/05/05 07:00:36;;;;;;;2.87;2.30;;;;;;;19.51;33.92;97584.63;1692985;84;21333;-73
2021/05/05 07:03:03;;;;;;;4.15;2.33;;;;;;;19.65;33.91;97587.89;1676755;84;21374;-73
2021/05/05 07:05:29;;;;;;;2.65;2.20;;;;;;;19.75;34.02;97587.13;1695806;84;21164;-73
2021/05/05 07:07:55;;;;;;;3.85;2.47;;;;;;;19.79;34.00;97587.68;1656603;86;21535;-75
2021/05/05 07:10:21;;;;;;;3.33;2.40;;;;;;;19.90;33.57;97581.52;1650547;86;21354;-76
2021/05/05 07:12:47;;;;;;;3.27;2.40;;;;;;;19.97;33.51;97579.72;1649633;86;21193;-74
2021/05/05 07:15:13;;;;;;;2.80;2.45;;;;;;;20.09;33.55;97584.06;1660732;86;21176;-73
2021/05/05 07:17:39;;;;;;;4.87;2.37;;;;;;;20.18;33.19;97582.50;1659822;86;21328;-74
2021/05/05 07:20:06;;;;;;;4.62;2.65;;;;;;;20.22;33.15;97585.05;1660386;86;21196;-73
2021/05/05 07:22:32;;;;;;;3.25;2.45;;;;;;;20.25;33.22;97583.32;1639202;86;21161;-73
2021/05/05 07:24:58;;;;;;;3.12;2.08;;;;;;;20.30;33.26;97580.61;1649723;86;21350;-73
2021/05/05 07:27:24;;;;;;;3.37;2.37;;;;;;;20.43;33.40;97573.91;1651563;86;21363;-74
2021/05/05 07:29:50;;;;;;;3.08;2.30;;;;;;;20.60;33.35;97578.33;1650989;86;21319;-73
2021/05/05 07:32:16;;;;;;;3.92;2.40;;;;;;;20.74;33.16;97576.65;1650412;86;21330;-74
2021/05/05 07:34:43;;;;;;;3.15;2.27;;;;;;;20.81;32.62;97563.75;1651943;86;21351;-73
2021/05/05 07:37:14;;;;;;;3.12;2.17;;;;;;;20.83;32.70;97564.66;1653258;86;21237;-74
2021/05/05 07:47:16;;;;;;;3.20;2.30;;;;;;;21.12;32.71;97551.74;1666996;86;21208;-75
2021/05/05 07:49:47;;;;;;;5.70;2.25;;;;;;;21.29;32.70;97551.91;1639608;86;21527;-74
2021/05/05 07:52:10;;;;;;;3.50;2.30;;;;;;;21.40;32.58;97546.33;1639202;86;21169;-74
2021/05/05 07:54:36;;;;;;;2.62;2.30;;;;;;;21.44;32.61;97548.20;1667052;86;21195;-74
2021/05/05 07:57:03;;;;;;;2.45;2.20;;;;;;;21.43;32.25;97537.05;1641733;86;21331;-74
2021/05/05 07:59:29;;;;;;;3.22;2.00;;;;;;;21.35;32.14;97529.09;1625185;87;21203;-73
2021/05/05 08:01:55;;;;;;;2.67;2.22;;;;;;;21.29;32.62;97530.45;1641075;86;21222;-73
2021/05/05 08:04:21;;;;;;;3.05;2.20;;;;;;;21.22;32.70;97526.78;1645953;86;21206;-75
2021/05/05 08:06:47;;;;;;;4.95;2.40;;;;;;;21.16;32.77;97517.73;1645407;86;21153;-74
2021/05/05 08:09:13;;;;;;;3.40;2.20;;;;;;;21.08;32.95;97523.61;1643882;85;21214;-75
2021/05/05 08:11:39;;;;;;;3.80;2.52;;;;;;;20.99;33.19;97519.81;1657190;86;21191;-75
2021/05/05 08:14:05;;;;;;;3.65;2.30;;;;;;;21.05;33.72;97513.69;1657080;86;21234;-73
2021/05/05 08:16:31;;;;;;;4.08;2.20;;;;;;;21.12;33.47;97508.95;1657108;86;21422;-74
2021/05/05 08:18:57;;;;;;;4.45;2.47;;;;;;;21.17;33.49;97501.30;1657022;86;21195;-75
2021/05/05 08:21:24;;;;;;;3.83;2.30;;;;;;;21.23;34.00;97504.84;1656920;86;21648;-75
2021/05/05 08:23:50;;;;;;;6.40;2.65;;;;;;;21.31;34.23;97495.42;1657056;86;21237;-75
2021/05/05 08:26:16;;;;;;;3.92;2.67;;;;;;;21.34;33.79;97493.82;1657210;86;21688;-74
2021/05/05 08:28:42;;;;;;;2.77;2.02;;;;;;;21.33;33.41;97491.55;1657000;86;21376;-75
2021/05/05 08:31:08;;;;;;;3.37;2.27;;;;;;;21.23;33.13;97483.51;1656846;86;21372;-75
2021/05/05 08:33:34;;;;;;;3.40;2.10;;;;;;;21.19;32.83;97486.37;1657005;86;21901;-75
2021/05/05 08:36:01;;;;;;;2.45;2.15;;;;;;;21.18;32.89;97476.59;1657120;86;21724;-76
2021/05/05 08:38:27;;;;;;;8.47;2.63;;;;;;;21.14;32.98;97480.20;1636896;86;21245;-74
2021/05/05 08:40:53;;;;;;;5.10;2.27;;;;;;;21.11;32.57;97477.06;1630364;87;21245;-76
2021/05/05 08:43:19;;;;;;;3.30;2.30;;;;;;;21.04;32.78;97479.70;1630382;87;21818;-74
2021/05/05 08:45:45;;;;;;;5.83;2.15;;;;;;;20.89;32.39;97472.98;1630522;88;21163;-75
2021/05/05 08:48:11;;;;;;;7.92;2.95;;;;;;;20.59;32.95;97469.23;1630224;87;21651;-74
2021/05/05 08:50:39;;;;;;;5.47;2.60;;;;;;;20.39;33.07;97461.09;1630395;88;21237;-74
2021/05/05 08:53:06;;;;;;;4.15;2.50;;;;;;;20.32;33.30;97449.89;1630278;87;21237;-74
2021/05/05 08:55:32;;;;;;;3.72;2.33;;;;;;;20.32;34.42;97457.41;1638092;86;21656;-75
2021/05/05 08:57:59;;;;;;;3.62;2.60;;;;;;;20.31;33.98;97449.02;1645463;86;21190;-75
2021/05/05 09:00:30;;;;;;;5.12;2.50;;;;;;;20.24;33.94;97452.23;1643132;87;21562;-76
2021/05/05 09:02:57;;;;;;;5.70;2.60;;;;;;;20.12;33.90;97437.64;1656699;86;21656;-74
2021/05/05 09:05:23;;;;;;;3.47;2.20;;;;;;;20.00;34.24;97440.96;1657070;86;21181;-76
2021/05/05 09:07:49;;;;;;;4.67;2.40;;;;;;;20.02;34.14;97442.58;1656817;86;21223;-74
2021/05/05 09:10:20;;;;;;;3.98;2.30;;;;;;;20.06;34.10;97429.34;1658866;86;21766;-74
2021/05/05 09:12:49;;;;;;;4.55;2.40;;;;;;;20.11;33.78;97422.36;1659784;84;21208;-75
2021/05/05 09:15:19;;;;;;;3.30;2.22;;;;;;;20.17;33.75;97425.27;1671183;86;21222;-75
2021/05/05 09:17:52;;;;;;;2.95;2.02;;;;;;;20.24;33.43;97419.91;1670288;86;21207;-74
2021/05/05 09:20:24;;;;;;;4.17;2.37;;;;;;;20.32;33.25;97414.69;1669451;86;21174;-74
2021/05/05 09:22:55;;;;;;;5.22;2.45;;;;;;;20.40;33.13;97408.20;1662702;86;21180;-75
2021/05/05 09:25:24;;;;;;;3.87;2.00;;;;;;;20.58;32.86;97410.45;1664835;86;21706;-74
2021/05/05 09:28:14;;;;;;;4.37;2.20;;;;;;;20.82;31.71;97401.75;1657595;86;21192;-75
2021/05/05 09:30:43;;;;;;;3.75;2.75;;;;;;;21.08;31.39;97401.53;1655224;86;21197;-75
2021/05/05 09:33:09;;;;;;;4.12;1.90;;;;;;;21.31;30.74;97398.18;1659368;86;21207;-73
2021/05/05 09:35:37;;;;;;;3.42;1.80;;;;;;;21.48;30.13;97383.77;1667828;86;21653;-75
2021/05/05 09:38:07;;;;;;;5.75;2.40;;;;;;;21.64;29.54;97386.39;1664139;86;21661;-75
2021/05/05 09:40:35;;;;;;;3.58;2.02;;;;;;;21.82;29.20;97378.82;1649821;86;21183;-73
2021/05/05 09:43:16;;;;;;;3.10;2.20;;;;;;;21.97;29.59;97365.48;1668492;86;21220;-77
2021/05/05 09:45:42;;;;;;;2.65;2.00;;;;;;;22.23;29.14;97361.65;1669752;86;21214;-74
2021/05/05 09:48:08;;;;;;;3.50;2.20;;;;;;;22.43;29.26;97368.88;1665392;86;21231;-76
2021/05/05 09:50:41;;;;;;;5.25;2.08;;;;;;;22.67;29.09;97358.55;1666860;86;21152;-74
2021/05/05 09:53:21;;;;;;;3.25;2.02;;;;;;;22.93;28.29;97352.61;1648144;86;21224;-76
2021/05/05 09:56:00;;;;;;;3.15;2.02;;;;;;;23.00;27.60;97351.45;1649226;86;21213;-72
2021/05/05 09:58:29;;;;;;;4.20;1.90;;;;;;;23.18;26.81;97354.84;1653328;86;21189;-72
2021/05/05 10:01:09;;;;;;;3.60;1.82;;;;;;;23.28;26.59;97347.72;1652833;86;21657;-72
2021/05/05 10:03:40;;;;;;;3.75;2.00;;;;;;;23.30;26.55;97334.72;1627524;87;21608;-73
2021/05/05 10:06:21;;;;;;;3.42;1.85;;;;;;;23.13;26.31;97341.15;1652506;86;21650;-72
2021/05/05 10:08:57;;;;;;;3.12;2.00;;;;;;;22.89;26.22;97330.75;1657976;86;21746;-72
2021/05/05 10:11:29;;;;;;;4.10;2.00;;;;;;;22.69;26.50;97323.56;1649832;86;21232;-73
2021/05/05 10:13:58;;;;;;;2.72;2.02;;;;;;;22.59;26.36;97327.29;1699867;84;21230;-72
2021/05/05 10:16:24;;;;;;;4.45;1.95;;;;;;;22.70;26.80;97318.17;1665221;86;21261;-72
2021/05/05 10:18:51;;;;;;;4.55;1.90;;;;;;;22.83;27.42;97320.33;1661980;86;21231;-72
2021/05/05 10:21:20;;;;;;;2.60;2.10;;;;;;;23.01;26.83;97316.96;1699841;84;21179;-73
2021/05/05 10:23:48;;;;;;;3.17;2.08;;;;;;;23.01;26.94;97323.14;1701929;83;21642;-73
2021/05/05 10:26:15;;;;;;;3.45;1.92;;;;;;;23.04;26.81;97313.80;1699822;84;21216;-73
2021/05/05 10:28:41;;;;;;;5.33;1.80;;;;;;;23.16;26.48;97305.53;1699230;84;21225;-71
2021/05/05 10:31:15;;;;;;;3.30;1.87;;;;;;;23.29;26.60;97307.66;1697482;84;21322;-73
2021/05/05 10:33:41;;;;;;;3.25;2.00;;;;;;;23.41;26.43;97300.02;1694538;84;21215;-73
2021/05/05 10:36:31;;;;;;;2.80;1.82;;;;;;;23.54;26.52;97296.61;1696914;84;21206;-72
2021/05/05 10:38:57;;;;;;;4.05;1.77;;;;;;;23.64;26.38;97300.53;1702701;84;21223;-73
2021/05/05 10:41:24;;;;;;;5.28;2.27;;;;;;;23.60;26.96;97293.91;1698992;83;21182;-75
2021/05/05 10:43:55;;;;;;;3.50;1.80;;;;;;;23.55;26.63;97280.86;1694910;83;21214;-73
2021/05/05 10:46:32;;;;;;;3.33;2.22;;;;;;;23.43;27.33;97284.36;1699806;84;22297;-73
2021/05/05 10:49:13;;;;;;;3.87;1.90;;;;;;;23.47;27.57;97283.45;1702701;84;21173;-74
2021/05/05 10:51:49;;;;;;;3.87;2.10;;;;;;;23.47;27.83;97270.98;1697518;84;21222;-72
2021/05/05 10:54:19;;;;;;;2.47;1.90;;;;;;;23.24;27.49;97266.92;1700722;84;21192;-72
2021/05/05 10:57:10;;;;;;;3.55;2.00;;;;;;;22.94;28.34;97263.50;1697316;84;21188;-72
2021/05/05 11:00:06;;;;;;;4.37;2.12;;;;;;;22.90;29.14;97267.20;1710981;83;21213;-74
2021/05/05 11:02:46;;;;;;;5.67;2.20;;;;;;;22.92;28.67;97265.30;1661681;83;21218;-74
2021/05/05 11:05:15;;;;;;;3.45;1.80;;;;;;;22.89;28.45;97267.09;1716760;83;21217;-74
2021/05/05 11:07:57;;;;;;;5.37;2.10;;;;;;;22.82;28.56;97266.25;1703022;83;21221;-75
2021/05/05 11:10:37;;;;;;;3.98;1.90;;;;;;;22.75;28.85;97270.95;1688474;83;21280;-72
2021/05/05 11:13:18;;;;;;;3.42;1.90;;;;;;;22.72;28.23;97266.45;1692542;84;21194;-72
2021/05/05 11:15:47;;;;;;;4.00;1.95;;;;;;;22.63;28.48;97277.20;1686887;83;21204;-71
2021/05/05 11:18:30;;;;;;;5.75;2.62;;;;;;;22.48;28.29;97266.50;1670925;86;21537;-73
2021/05/05 11:21:00;;;;;;;2.87;2.02;;;;;;;22.38;28.36;97266.04;1670910;85;21231;-74
2021/05/05 11:26:18;;;;;;;3.65;2.00;;;;;;;22.28;28.91;97248.88;1680257;84;21186;-74
2021/05/05 11:29:12;;;;;;;6.08;2.05;;;;;;;22.23;28.99;97245.52;1702868;84;21191;-72
2021/05/05 11:31:49;;;;;;;5.83;2.12;;;;;;;22.20;29.83;97220.27;1681128;84;21169;-73
2021/05/05 11:34:25;;;;;;;3.77;2.17;;;;;;;22.20;29.85;97232.72;1676467;84;21236;-73
2021/05/05 11:37:02;;;;;;;3.62;2.10;;;;;;;22.21;29.52;97236.36;1695022;84;21219;-72
2021/05/05 11:39:36;;;;;;;4.37;2.10;;;;;;;22.27;30.13;97231.55;1697203;84;21616;-73
2021/05/05 11:42:13;;;;;;;2.42;2.20;;;;;;;22.40;29.74;97240.65;1664005;85;21186;-73
2021/05/05 11:44:49;;;;;;;5.42;2.08;;;;;;;22.49;29.96;97239.58;1679535;84;21693;-74
2021/05/05 11:47:18;;;;;;;4.90;2.20;;;;;;;22.52;30.02;97244.09;1693560;84;21779;-74